Flight Track Log - Related Links

Times and Time Zones

All times are in EDT time to prevent confusion due to time zone crossing. See the DAL933 flight status page for this flight to view local times or setup timezone preferences in your user account.


Time Position Orientation Groundspeed Altitude Reporting Facility
EDT Latitude Longitude Course Direction KTS MPH feet Rate Location/Type
Sat 12:02:50 PM 40.8033 -111.9633 126° Southeast 157 181 5,700  Level Salt Lake Center
Sat 12:03:06 PM 40.8131 -111.9608 11° North 136 157 6,100 1,385 Climbing Salt Lake Center
Sat 12:04:08 PM 40.8675 -111.9719 351° North 201 231 7,500 2,098 Climbing Salt Lake Center
Sat 12:05:09 PM 40.9369 -111.9806 355° North 246 283 10,400 2,585 Climbing Salt Lake Center
Sat 12:06:11 PM 40.9689 -111.8967 63° Northeast 315 362 12,800 2,323 Climbing Salt Lake Center
Sat 12:07:00 PM 40.4077 -111.2756 125° Southeast  Level Estimated
Sat 12:07:13 PM 40.8997 -111.7647 125° Southeast 376 433 15,200  Level Salt Lake Center
Sat 12:08:00 PM 40.3310 -111.1362 126° Southeast  Level Estimated
Sat 12:08:14 PM 40.8269 -111.6417 128° Southeast 426 490 16,800  Level Salt Lake Center
Sat 12:09:16 PM 40.7494 -111.5064 127° Southeast 458 527 18,600 1,951 Climbing Salt Lake Center
Sat 12:10:17 PM 40.6803 -111.3633 122° Southeast 465 535 20,800 2,049 Climbing Salt Lake Center
Sat 12:11:19 PM 40.6361 -111.2067 110° East 461 531 22,800 1,707 Climbing Salt Lake Center
Sat 12:12:20 PM 40.5906 -111.0469 111° Southeast 464 534 24,300 1,366 Climbing Salt Lake Center
Sat 12:13:22 PM 40.5406 -110.8783 111° Southeast 490 564 25,600 1,452 Climbing Salt Lake Center
Sat 12:14:24 PM 40.4800 -110.6714 111° Southeast 505 581 27,300 2,000 Climbing Salt Lake Center
Sat 12:15:25 PM 40.4303 -110.5097 112° Southeast 499 574 29,700 1,902 Climbing Salt Lake Center
Sat 12:16:27 PM 40.3431 -110.3717 130° Southeast 519 597 31,200 1,268 Climbing Salt Lake Center
Sat 12:17:28 PM 40.2253 -110.2222 136° Southeast 525 604 32,300 878 Climbing Salt Lake Center
Sat 12:18:30 PM 40.1214 -110.0919 136° Southeast 533 613 33,000 339 Climbing Salt Lake Center
Sat 12:19:32 PM 39.9961 -109.9375 137° Southeast 550 633 33,000  Level Salt Lake Center
Sat 12:20:30 PM 39.8883 -109.8028 136° Southeast 555 639 33,000  Level Denver Center
Sat 12:21:31 PM 39.7806 -109.6697 136° Southeast 556 640 33,000  Level Denver Center
Sat 12:22:36 PM 39.6572 -109.5178 136° Southeast 556 640 33,000  Level Salt Lake Center
Sat 12:23:38 PM 39.5331 -109.3667 137° Southeast 553 636 33,000 484 Level Salt Lake Center
Sat 12:24:40 PM 39.4297 -109.2389 136° Southeast 543 625 34,000 984 Climbing Salt Lake Center
Sat 12:25:40 PM 39.3272 -109.1156 137° Southeast 529 609 35,000 496 Climbing Denver Center
Sat 12:26:41 PM 39.2128 -108.9756 137° Southeast 514 592 35,000  Level Denver Center
Sat 12:27:45 PM 39.1108 -108.8553 138° Southeast 519 597 35,000  Level Denver Center
Sat 12:28:59 PM 38.9772 -108.7347 145° Southeast 524 603 35,000  Level Denver Center
Sat 12:30:00 PM 38.8428 -108.6211 147° Southeast 521 600 35,000  Level Denver Center
Sat 12:31:02 PM 38.7086 -108.5064 146° Southeast 520 598 35,000  Level Denver Center
Sat 12:32:06 PM 38.5803 -108.4414 158° South 521 600 35,000  Level Denver Center
Sat 12:33:07 PM 38.4256 -108.3853 164° South 520 598 35,000  Level Denver Center
Sat 12:34:09 PM 38.2914 -108.3347 164° South 522 601 35,000  Level Denver Center
Sat 12:35:13 PM 38.1358 -108.2767 164° South 522 601 35,000  Level Denver Center
Sat 12:36:13 PM 38.0036 -108.2256 163° South 522 601 35,000  Level Denver Center
Sat 12:37:15 PM 37.8447 -108.1575 161° South 530 610 35,000  Level Denver Center
Sat 12:38:16 PM 37.7108 -108.1061 163° South 530 610 35,000  Level Denver Center
Sat 12:39:20 PM 37.5728 -107.9947 147° Southeast 525 604 35,000  Level Denver Center
Sat 12:40:21 PM 37.4606 -107.8856 142° Southeast 529 609 35,000  Level Denver Center
Sat 12:41:25 PM 37.3314 -107.7650 143° Southeast 522 601 35,000  Level Denver Center
Sat 12:42:26 PM 37.2208 -107.6631 144° Southeast 519 597 35,000  Level Denver Center
Sat 12:43:40 PM 37.0922 -107.5442 144° Southeast 513 590 35,000  Level Denver Center
Sat 12:44:43 PM 36.9600 -107.4253 144° Southeast 518 596 35,000  Level Denver Center
Sat 12:45:45 PM 36.8275 -107.3103 145° Southeast 519 597 35,000  Level Denver Center
Sat 12:46:46 PM 36.7147 -107.2106 145° Southeast 519 597 35,000  Level Denver Center
Sat 12:47:48 PM 36.5833 -107.0947 145° Southeast 518 596 35,000  Level Denver Center
Sat 12:48:51 PM 36.4706 -106.9958 145° Southeast 518 596 35,000  Level Denver Center
Sat 12:49:45 PM 36.3572 -106.8989 145° Southeast 517 595 35,000  Level Albuquerque Center
Sat 12:50:47 PM 36.2458 -106.8011 145° Southeast 513 590 35,000  Level Albuquerque Center
Sat 12:51:49 PM 36.1161 -106.6900 145° Southeast 509 586 35,000  Level Albuquerque Center
Sat 12:52:51 PM 36.0044 -106.5928 145° Southeast 510 587 35,000  Level Albuquerque Center
Sat 12:53:53 PM 35.8711 -106.4769 145° Southeast 519 597 35,000  Level Albuquerque Center
Sat 12:54:55 PM 35.7531 -106.3747 145° Southeast 518 596 35,000  Level Albuquerque Center
Sat 12:55:57 PM 35.6253 -106.2664 145° Southeast 519 597 35,000  Level Albuquerque Center
Sat 12:56:59 PM 35.5100 -106.1681 145° Southeast 514 592 35,000  Level Albuquerque Center
Sat 12:58:01 PM 35.3936 -106.0694 145° Southeast 508 585 35,000  Level Albuquerque Center
Sat 12:59:03 PM 35.2653 -105.9628 146° Southeast 507 583 35,000  Level Albuquerque Center
Sat 01:00:05 PM 35.1517 -105.8661 145° Southeast 502 578 35,000 -48 Level Albuquerque Center
Sat 01:01:07 PM 35.0389 -105.7711 145° Southeast 495 570 34,900  Descending Albuquerque Center
Sat 01:02:09 PM 34.9256 -105.6767 146° Southeast 493 567 35,000 48 Climbing Albuquerque Center
Sat 01:03:11 PM 34.8086 -105.5800 146° Southeast 493 567 35,000  Level Albuquerque Center
Sat 01:04:14 PM 34.6944 -105.4844 145° Southeast 494 568 35,000  Level Albuquerque Center
Sat 01:05:16 PM 34.5592 -105.3725 146° Southeast 500 575 35,000  Level Albuquerque Center
Sat 01:06:18 PM 34.4414 -105.2764 146° Southeast 505 581 35,000  Level Albuquerque Center
Sat 01:07:20 PM 34.3244 -105.1794 146° Southeast 507 583 35,000  Level Albuquerque Center
Sat 01:08:22 PM 34.2064 -105.0833 146° Southeast 507 583 35,000  Level Albuquerque Center
Sat 01:09:24 PM 34.0900 -104.9878 146° Southeast 504 580 35,000  Level Albuquerque Center
Sat 01:10:26 PM 33.9586 -104.8833 147° Southeast 502 578 35,000  Level Albuquerque Center
Sat 01:11:28 PM 33.8447 -104.7900 146° Southeast 496 571 35,000  Level Albuquerque Center
Sat 01:12:30 PM 33.7214 -104.6911 146° Southeast 494 568 35,000  Level Albuquerque Center
Sat 01:13:32 PM 33.6072 -104.6011 147° Southeast 491 565 35,000  Level Albuquerque Center
Sat 01:14:34 PM 33.4861 -104.5036 146° Southeast 487 560 35,000  Level Albuquerque Center
Sat 01:15:36 PM 33.3914 -104.4283 146° Southeast 483 556 35,000  Level Albuquerque Center
Sat 01:16:26 PM 33.3017 -104.3581 147° Southeast 484 557 35,000  Level Albuquerque Center
Sat 01:17:28 PM 33.1642 -104.2447 145° Southeast 489 563 35,000  Level Albuquerque Center
Sat 01:18:30 PM 33.0508 -104.1542 146° Southeast 489 563 35,000  Level Albuquerque Center
Sat 01:19:32 PM 32.9272 -104.0578 147° Southeast 492 566 35,000  Level Albuquerque Center
Sat 01:20:34 PM 32.8133 -103.9661 146° Southeast 494 568 35,000  Level Albuquerque Center
Sat 01:21:36 PM 32.6906 -103.8694 146° Southeast 493 567 35,000  Level Albuquerque Center
Sat 01:22:38 PM 32.5939 -103.7983 148° Southeast 487 560 35,000  Level Albuquerque Center
Sat 01:23:40 PM 32.4608 -103.6936 146° Southeast 483 556 35,000  Level Albuquerque Center
Sat 01:24:42 PM 32.3461 -103.6067 147° Southeast 488 562 35,000  Level Albuquerque Center
Sat 01:25:44 PM 32.2322 -103.5194 147° Southeast 490 564 35,000  Level Albuquerque Center
Sat 01:26:46 PM 32.1181 -103.4317 147° Southeast 491 565 35,000  Level Albuquerque Center
Sat 01:27:48 PM 32.0039 -103.3436 147° Southeast 492 566 35,000  Level Albuquerque Center
Sat 01:28:51 PM 31.8886 -103.2556 147° Southeast 495 570 35,000  Level Albuquerque Center
Sat 01:29:53 PM 31.7728 -103.1428 140° Southeast 502 578 35,000  Level Albuquerque Center
Sat 01:30:55 PM 31.6461 -103.0156 139° Southeast 500 575 35,000  Level Albuquerque Center
Sat 01:31:57 PM 31.5414 -102.9097 139° Southeast 499 574 35,000  Level Albuquerque Center
Sat 01:32:59 PM 31.4386 -102.8056 139° Southeast 495 570 35,000  Level Albuquerque Center
Sat 01:34:01 PM 31.3358 -102.7025 139° Southeast 491 565 35,000  Level Albuquerque Center
Sat 01:35:03 PM 31.2339 -102.5994 139° Southeast 491 565 35,000  Level Albuquerque Center
Sat 01:36:05 PM 31.1181 -102.4814 139° Southeast 493 567 35,000  Level Albuquerque Center
Sat 01:37:07 PM 31.0153 -102.3786 139° Southeast 491 565 35,000  Level Albuquerque Center
Sat 01:38:16 PM 30.8922 -102.2556 139° Southeast 482 555 35,000  Level Houston Center
Sat 01:39:18 PM 30.7889 -102.1542 140° Southeast 483 556 35,000  Level Houston Center
Sat 01:40:20 PM 30.6861 -102.0525 140° Southeast 484 557 35,000  Level Houston Center
Sat 01:41:22 PM 30.5825 -101.9514 140° Southeast 486 559 35,000  Level Houston Center
Sat 01:42:24 PM 30.4794 -101.8500 140° Southeast 486 559 35,000 -48 Level Houston Center
Sat 01:43:26 PM 30.3564 -101.7292 140° Southeast 484 557 34,900  Descending Houston Center
Sat 01:44:29 PM 30.2675 -101.6444 141° Southeast 481 554 35,000 672 Climbing Houston Center
Sat 01:45:31 PM 30.1467 -101.5275 140° Southeast 480 552 36,300 1,065 Climbing Houston Center
Sat 01:46:33 PM 30.0472 -101.4289 139° Southeast 477 549 37,200 871 Climbing Houston Center
Sat 01:47:35 PM 29.9467 -101.3319 140° Southeast 476 548 38,100 726 Climbing Houston Center
Sat 01:48:37 PM 29.8442 -101.2347 141° Southeast 477 549 38,700 435 Climbing Houston Center
Sat 01:49:39 PM 29.7214 -101.1164 140° Southeast 482 555 39,000 144 Climbing Houston Center
Sat 01:50:42 PM 29.6192 -101.0186 140° Southeast 482 555 39,000  Level Houston Center
Sat 01:51:44 PM 29.5156 -100.9194 140° Southeast 482 555 39,000  Level Houston Center
Sat 01:52:46 PM 29.4136 -100.8222 140° Southeast 483 556 39,000  Level Houston Center
Sat 01:53:48 PM 29.3081 -100.7314 143° Southeast 481 554 39,000  Level Houston Center
Sat 01:54:50 PM 29.1778 -100.6389 148° Southeast 465 535 39,000  Level Houston Center
Sat 01:55:52 PM 29.0697 -100.5586 147° Southeast 465 535 39,000  Level Houston Center
Sat 01:56:55 PM 28.9608 -100.4769 147° Southeast 465 535 39,000  Level Houston Center
Sat 01:57:57 PM 28.8539 -100.3994 148° Southeast 464 534 39,000  Level Houston Center
Sat 01:58:59 PM 28.7464 -100.3225 148° Southeast 462 532 39,000  Level Houston Center
Sat 02:00:01 PM 28.6167 -100.2294 148° Southeast 461 531 39,000  Level Houston Center
Sat 02:01:03 PM 28.5075 -100.1492 147° Southeast 461 531 39,000  Level Houston Center
Sat 02:02:05 PM 28.3986 -100.0694 147° Southeast 463 533 39,000  Level Houston Center
Sat 02:03:08 PM 28.3058 -99.9567 133° Southeast 483 556 39,000  Level Houston Center
Sat 02:04:10 PM 28.2211 -99.8350 128° Southeast 490 564 39,000  Level Houston Center
Sat 02:05:12 PM 28.1336 -99.7144 129° Southeast 492 566 39,000  Level Houston Center
Sat 02:06:14 PM 28.0308 -99.5706 129° Southeast 490 564 39,000  Level Houston Center
Sat 02:07:16 PM 27.9458 -99.4508 129° Southeast 489 563 39,000  Level Houston Center
Sat 02:08:19 PM 27.8600 -99.3339 130° Southeast 486 559 39,000  Level Houston Center
Sat 02:09:21 PM 27.7758 -99.2167 129° Southeast 480 552 39,000  Level Houston Center
Sat 02:10:23 PM 27.6917 -99.1031 130° Southeast 475 547 39,000  Level Houston Center
Sat 02:11:25 PM 27.6083 -98.9903 130° Southeast 467 537 39,000  Level Houston Center
Sat 02:12:27 PM 27.5075 -98.8556 130° Southeast 467 537 39,000  Level Houston Center
Sat 02:13:30 PM 27.4361 -98.7589 130° Southeast 465 535 39,000  Level Houston Center
Sat 02:14:32 PM 27.3344 -98.6239 130° Southeast 468 539 39,000  Level Houston Center
Sat 02:15:34 PM 27.2489 -98.5100 130° Southeast 473 544 39,000  Level Houston Center
Sat 02:16:36 PM 27.1628 -98.3961 130° Southeast 475 547 39,000  Level Houston Center
Sat 02:17:38 PM 27.0678 -98.2711 130° Southeast 476 548 39,000  Level Houston Center
Sat 02:18:40 PM 26.9808 -98.1553 130° Southeast 477 549 39,000  Level Houston Center
Sat 02:19:43 PM 26.8931 -98.0400 130° Southeast 477 549 39,000  Level Houston Center
Sat 02:20:45 PM 26.7986 -97.9150 130° Southeast 475 547 39,000  Level Houston Center
Sat 02:21:47 PM 26.7139 -97.8033 130° Southeast 471 542 39,000  Level Houston Center
Sat 02:22:49 PM 26.6286 -97.6922 131° Southeast 470 541 39,000  Level Houston Center
Sat 02:23:51 PM 26.5378 -97.5739 131° Southeast 468 539 39,000  Level Houston Center
Sat 02:24:54 PM 26.4542 -97.4644 130° Southeast 465 535 39,000  Level Houston Center
Sat 02:25:56 PM 26.3639 -97.3486 131° Southeast 460 529 39,000  Level Houston Center
Sat 02:26:58 PM 26.2797 -97.2400 131° Southeast 460 529 39,000  Level Houston Center
Sat 02:28:00 PM 26.1950 -97.1314 131° Southeast 463 533 39,000  Level Houston Center
Sat 02:29:02 PM 26.1047 -97.0144 131° Southeast 463 533 39,000  Level Houston Center
Sat 02:30:04 PM 26.0189 -96.9064 131° Southeast 464 534 39,000  Level Houston Center
Sat 02:31:07 PM 25.9283 -96.7886 131° Southeast 465 535 39,000  Level Houston Center
Sat 02:33:00 PM 25.7580 -96.5856 133° Southeast  Level FlightAware Approximate
Sat 02:40:00 PM 25.1469 -95.8115 131° Southeast  Level FlightAware Approximate
Sat 02:41:00 PM 25.0597 -95.7012 131° Southeast  Level FlightAware Approximate
Sat 02:42:00 PM 24.9723 -95.5911 131° Southeast  Level FlightAware Approximate
Sat 02:43:00 PM 24.8849 -95.4811 131° Southeast  Level FlightAware Approximate
Sat 02:44:00 PM 24.7974 -95.3713 131° Southeast  Level FlightAware Approximate
Sat 02:45:00 PM 24.7098 -95.2616 131° Southeast  Level FlightAware Approximate
Sat 02:46:00 PM 24.6221 -95.1521 131° Southeast  Level FlightAware Approximate
Sat 02:47:00 PM 24.5343 -95.0427 131° Southeast  Level FlightAware Approximate
Sat 02:48:00 PM 24.4465 -94.9335 131° Southeast  Level FlightAware Approximate
Sat 02:49:00 PM 24.3586 -94.8245 131° Southeast  Level FlightAware Approximate
Sat 02:50:00 PM 24.2706 -94.7156 132° Southeast  Level FlightAware Approximate
Sat 02:51:00 PM 24.1826 -94.6068 132° Southeast  Level FlightAware Approximate
Sat 02:52:00 PM 24.1176 -94.4822 113° Southeast  Level FlightAware Approximate
Sat 02:53:00 PM 24.0661 -94.3483 113° Southeast  Level FlightAware Approximate
Sat 02:54:00 PM 24.0145 -94.2145 113° Southeast  Level FlightAware Approximate
Sat 02:55:00 PM 23.9628 -94.0808 113° Southeast  Level FlightAware Approximate
Sat 02:56:00 PM 23.9110 -93.9472 113° Southeast  Level FlightAware Approximate
Sat 02:57:00 PM 23.8600 -93.8133 110° East  Level FlightAware Approximate
Sat 02:58:00 PM 23.8146 -93.6771 110° East  Level FlightAware Approximate
Sat 02:59:00 PM 23.7647 -93.5428 113° Southeast  Level FlightAware Approximate
Sat 03:00:00 PM 23.7126 -93.4096 113° Southeast  Level FlightAware Approximate
Sat 03:01:00 PM 23.6604 -93.2765 113° Southeast  Level FlightAware Approximate
Sat 03:02:00 PM 23.6084 -93.1433 113° Southeast  Level FlightAware Approximate
Sat 03:03:00 PM 23.5563 -93.0102 113° Southeast  Level FlightAware Approximate
Sat 03:04:00 PM 23.5041 -92.8772 113° Southeast  Level FlightAware Approximate
Sat 03:05:00 PM 23.4522 -92.7441 113° Southeast  Level FlightAware Approximate
Sat 03:06:00 PM 23.4002 -92.6112 113° Southeast  Level FlightAware Approximate
Sat 03:07:00 PM 23.3480 -92.4783 114° Southeast  Level FlightAware Approximate
Sat 03:08:00 PM 23.2943 -92.3462 114° Southeast  Level FlightAware Approximate
Sat 03:09:00 PM 23.2406 -92.2142 114° Southeast  Level FlightAware Approximate
Sat 03:10:00 PM 23.1867 -92.0824 114° Southeast  Level FlightAware Approximate
Sat 03:11:00 PM 23.1357 -91.9493 112° Southeast  Level FlightAware Approximate
Sat 03:12:00 PM 23.0862 -91.8155 112° Southeast  Level FlightAware Approximate
Sat 03:13:00 PM 23.0366 -91.6818 112° Southeast  Level FlightAware Approximate
Sat 03:14:00 PM 22.9861 -91.5485 113° Southeast  Level FlightAware Approximate
Sat 03:15:00 PM 22.9333 -91.4164 113° Southeast  Level FlightAware Approximate
Sat 03:16:00 PM 22.8793 -91.2849 115° Southeast  Level FlightAware Approximate
Sat 03:17:00 PM 22.8234 -91.1544 115° Southeast  Level FlightAware Approximate
Sat 03:18:00 PM 22.7675 -91.0239 115° Southeast  Level FlightAware Approximate
Sat 03:19:00 PM 22.7152 -90.8918 112° Southeast  Level FlightAware Approximate
Sat 03:20:00 PM 22.6646 -90.7589 112° Southeast  Level FlightAware Approximate
Sat 03:21:00 PM 22.6137 -90.6262 114° Southeast  Level FlightAware Approximate
Sat 03:22:00 PM 22.5593 -90.4952 114° Southeast  Level FlightAware Approximate
Sat 03:23:00 PM 22.5049 -90.3642 114° Southeast  Level FlightAware Approximate
Sat 03:24:00 PM 22.4503 -90.2334 114° Southeast  Level FlightAware Approximate
Sat 03:25:00 PM 22.3956 -90.1027 114° Southeast  Level FlightAware Approximate
Sat 03:26:00 PM 22.3409 -89.9721 114° Southeast  Level FlightAware Approximate
Sat 03:27:00 PM 22.2860 -89.8415 114° Southeast  Level FlightAware Approximate
Sat 03:28:00 PM 22.2312 -89.7111 113° Southeast  Level FlightAware Approximate
Sat 03:29:00 PM 22.1799 -89.5789 113° Southeast  Level FlightAware Approximate
Sat 03:30:00 PM 22.1285 -89.4469 113° Southeast  Level FlightAware Approximate
Sat 03:31:00 PM 22.0681 -89.3196 118° Southeast  Level FlightAware Approximate
Sat 03:32:00 PM 22.0180 -89.1874 110° East  Level FlightAware Approximate
Sat 03:33:00 PM 21.9629 -89.0574 114° Southeast  Level FlightAware Approximate
Sat 03:34:00 PM 21.9091 -88.9267 114° Southeast  Level FlightAware Approximate
Sat 03:35:00 PM 21.8552 -88.7961 114° Southeast  Level FlightAware Approximate
Sat 03:36:00 PM 21.7932 -88.6698 118° Southeast  Level FlightAware Approximate
Sat 03:37:00 PM 21.7426 -88.5379 111° Southeast  Level FlightAware Approximate
Sat 03:38:00 PM 21.6959 -88.4043 110° East  Level FlightAware Approximate
Sat 03:39:00 PM 21.6447 -88.2728 114° Southeast  Level FlightAware Approximate
Sat 03:40:00 PM 21.5910 -88.1423 114° Southeast  Level FlightAware Approximate
Sat 03:41:00 PM 21.5399 -88.0107 112° Southeast  Level FlightAware Approximate
Sat 03:42:00 PM 21.4909 -87.8783 112° Southeast  Level FlightAware Approximate
Sat 03:43:00 PM 21.4418 -87.7458 112° Southeast  Level FlightAware Approximate
Sat 03:44:00 PM 21.3933 -87.6133 110° East  Level FlightAware Approximate
Sat 03:45:00 PM 21.3427 -87.4817 113° Southeast  Level FlightAware Approximate
Sat 03:46:00 PM 21.2912 -87.3504 112° Southeast  Level FlightAware Approximate
Sat 03:47:00 PM 21.2406 -87.2189 112° Southeast  Level FlightAware Approximate
Sat 03:48:00 PM 21.1794 -87.0941 126° Southeast  Level FlightAware Approximate
Sat 03:49:00 PM 21.0986 -86.9814 129° Southeast  Level FlightAware Approximate
Sat 03:50:00 PM 21.0365 -86.8771 118° Southeast  Level Estimated
Sat 03:51:00 PM 21.0365 -86.8771 270° West  Level Estimated
Sat 03:52:00 PM 21.0365 -86.8771 270° West  Level Estimated
Sat 03:53:00 PM 21.0365 -86.8771 270° West  Level Estimated
Sat 03:54:00 PM 21.0365 -86.8771 270° West  Level Estimated
Sat 03:55:00 PM 21.0365 -86.8771 270° West  Level Estimated
Sat 03:56:00 PM 21.0365 -86.8771 270° West  Level Estimated
Sat 03:57:00 PM 21.0365 -86.8771 270° West  Level Estimated
Sat 03:58:00 PM 21.0365 -86.8771 270° West  Level Estimated

Login

Don't have an account? Register now (free) for customized features, flight alerts, and more!